Time;durP1;ratioP1;P1;durP2;ratioP2;P2;SDS_P1;SDS_P2;PMS_P1;PMS_P2;Temp;Humidity;BMP_temperature;BMP_pressure;BME280_temperature;BME280_humidity;BME280_pressure;Samples;Min_cycle;Max_cycle;Signal;HPM_P1;HPM_P2
2022/10/21 00:00:49;;;;;;;22.23;14.20;;;;;;;;;;5114313;28;20076;-75
2022/10/21 00:03:15;;;;;;;21.48;13.90;;;;;;;;;;5118703;28;20376;-74
2022/10/21 00:05:41;;;;;;;23.77;14.90;;;;;;;;;;5114676;28;20031;-74
2022/10/21 00:08:07;;;;;;;26.73;14.52;;;;;;;;;;5114273;28;20081;-74
2022/10/21 00:10:33;;;;;;;22.42;14.68;;;;;;;;;;5114329;28;20392;-74
2022/10/21 00:12:59;;;;;;;26.80;14.50;;;;;;;;;;5114108;28;20027;-74
2022/10/21 00:15:25;;;;;;;24.05;14.75;;;;;;;;;;5113822;28;20024;-74
2022/10/21 00:17:51;;;;;;;24.80;14.88;;;;;;;;;;5114192;28;20079;-75
2022/10/21 00:20:17;;;;;;;28.23;15.50;;;;;;;;;;5114137;28;20024;-74
2022/10/21 00:22:43;;;;;;;21.80;14.52;;;;;;;;;;5113696;28;20103;-75
2022/10/21 00:25:09;;;;;;;23.25;13.90;;;;;;;;;;5114161;28;20106;-74
2022/10/21 00:27:35;;;;;;;22.50;14.45;;;;;;;;;;5112332;28;20100;-76
2022/10/21 00:30:02;;;;;;;26.38;14.75;;;;;;;;;;5113769;28;20388;-75
2022/10/21 00:32:28;;;;;;;24.80;14.77;;;;;;;;;;5113932;28;20434;-75
2022/10/21 00:34:54;;;;;;;25.73;15.32;;;;;;;;;;5114460;28;20056;-74
2022/10/21 00:37:20;;;;;;;26.55;15.02;;;;;;;;;;5114429;28;20027;-74
2022/10/21 00:39:46;;;;;;;25.77;15.05;;;;;;;;;;5117500;28;20050;-75
2022/10/21 00:42:17;;;;;;;26.13;15.75;;;;;;;;;;5118589;28;20024;-75
2022/10/21 00:44:43;;;;;;;24.38;15.07;;;;;;;;;;5118999;28;20020;-74
2022/10/21 00:47:14;;;;;;;25.67;15.80;;;;;;;;;;5118372;28;20088;-73
2022/10/21 00:49:43;;;;;;;26.88;15.13;;;;;;;;;;5116939;28;20031;-75
2022/10/21 00:52:12;;;;;;;29.75;16.05;;;;;;;;;;5115815;28;20027;-75
2022/10/21 00:54:39;;;;;;;23.40;15.90;;;;;;;;;;5115269;28;20496;-74
2022/10/21 00:57:05;;;;;;;28.17;16.10;;;;;;;;;;5113324;28;20020;-74
2022/10/21 00:59:34;;;;;;;30.48;16.60;;;;;;;;;;5113669;28;20290;-74
2022/10/21 01:02:01;;;;;;;25.13;15.05;;;;;;;;;;5112252;28;20636;-74
2022/10/21 01:04:27;;;;;;;30.30;15.80;;;;;;;;;;5117645;28;20391;-74
2022/10/21 01:06:53;;;;;;;30.60;16.50;;;;;;;;;;5113193;28;20099;-75
2022/10/21 01:09:19;;;;;;;25.60;15.10;;;;;;;;;;5101930;22;20068;-73
2022/10/21 01:11:46;;;;;;;22.55;14.70;;;;;;;;;;5082087;28;20025;-74
2022/10/21 01:14:12;;;;;;;25.85;15.57;;;;;;;;;;5073480;28;20017;-74
2022/10/21 01:16:49;;;;;;;24.63;16.33;;;;;;;;;;5067888;28;20036;-73
2022/10/21 01:19:33;;;;;;;23.60;15.43;;;;;;;;;;5067932;28;20116;-74
2022/10/21 01:22:28;;;;;;;27.15;16.02;;;;;;;;;;5068620;28;20043;-73
2022/10/21 01:25:04;;;;;;;31.27;16.17;;;;;;;;;;5034295;28;20053;-72
2022/10/21 01:27:37;;;;;;;26.80;16.40;;;;;;;;;;5072061;28;20039;-73
2022/10/21 01:30:06;;;;;;;30.65;15.10;;;;;;;;;;5072369;28;20029;-75
2022/10/21 01:32:56;;;;;;;26.38;16.67;;;;;;;;;;5072830;28;20081;-74
2022/10/21 01:35:28;;;;;;;26.67;15.10;;;;;;;;;;5082357;28;20021;-72
2022/10/21 01:38:14;;;;;;;32.55;15.55;;;;;;;;;;5053745;28;20028;-74
2022/10/21 01:40:46;;;;;;;25.45;15.48;;;;;;;;;;5032906;28;20052;-74
2022/10/21 01:43:15;;;;;;;29.02;16.15;;;;;;;;;;5070335;28;20025;-73
2022/10/21 01:45:46;;;;;;;25.20;15.07;;;;;;;;;;5069088;28;20033;-74
2022/10/21 01:48:32;;;;;;;26.83;15.48;;;;;;;;;;5053073;28;20025;-73
2022/10/21 01:51:01;;;;;;;31.50;15.32;;;;;;;;;;5051977;28;20470;-73
2022/10/21 01:53:29;;;;;;;26.58;16.40;;;;;;;;;;5067314;28;20036;-75
2022/10/21 01:55:55;;;;;;;32.47;16.17;;;;;;;;;;5051815;28;20095;-73
2022/10/21 01:58:23;;;;;;;26.90;16.52;;;;;;;;;;5067036;28;20025;-75
2022/10/21 02:00:50;;;;;;;25.95;16.58;;;;;;;;;;5052232;28;20025;-75
2022/10/21 02:03:19;;;;;;;29.58;16.55;;;;;;;;;;5053816;28;20431;-72
2022/10/21 02:05:45;;;;;;;23.83;16.05;;;;;;;;;;5055742;28;20029;-74
2022/10/21 02:08:11;;;;;;;25.73;16.85;;;;;;;;;;5055461;28;20029;-73
2022/10/21 02:10:39;;;;;;;25.55;17.33;;;;;;;;;;5056343;28;20037;-74
2022/10/21 02:13:07;;;;;;;23.20;15.57;;;;;;;;;;5055441;28;20036;-75
2022/10/21 02:15:34;;;;;;;25.98;16.40;;;;;;;;;;5055311;28;20028;-73
2022/10/21 02:18:16;;;;;;;31.40;17.42;;;;;;;;;;5055211;28;20025;-74
2022/10/21 02:20:44;;;;;;;32.75;18.05;;;;;;;;;;5055576;28;20021;-75
2022/10/21 02:23:12;;;;;;;29.70;17.58;;;;;;;;;;5055651;28;20510;-73
2022/10/21 02:25:40;;;;;;;30.10;17.80;;;;;;;;;;5054980;28;20086;-74
2022/10/21 02:28:06;;;;;;;31.45;18.20;;;;;;;;;;5055539;28;20104;-74
2022/10/21 02:30:38;;;;;;;32.30;17.40;;;;;;;;;;5071390;28;20533;-73
2022/10/21 02:33:17;;;;;;;29.10;17.73;;;;;;;;;;5071116;28;20029;-74
2022/10/21 02:35:43;;;;;;;29.63;18.10;;;;;;;;;;5070352;28;20055;-74
2022/10/21 02:38:29;;;;;;;28.17;16.63;;;;;;;;;;5055177;28;20036;-74
2022/10/21 02:41:00;;;;;;;29.95;17.67;;;;;;;;;;5055567;28;20029;-74
2022/10/21 02:43:31;;;;;;;32.00;17.85;;;;;;;;;;5060415;28;20057;-73
2022/10/21 02:46:08;;;;;;;27.25;17.10;;;;;;;;;;5061114;28;20115;-74
2022/10/21 02:48:35;;;;;;;28.83;17.30;;;;;;;;;;5060380;28;20108;-74
2022/10/21 02:51:05;;;;;;;25.20;16.40;;;;;;;;;;5055221;28;20497;-73
2022/10/21 02:53:31;;;;;;;29.02;18.23;;;;;;;;;;5063023;28;20032;-75
2022/10/21 02:55:57;;;;;;;42.80;17.45;;;;;;;;;;5034717;28;20079;-75
2022/10/21 02:58:23;;;;;;;32.42;19.48;;;;;;;;;;5041882;28;20018;-75
2022/10/21 03:00:49;;;;;;;32.63;18.02;;;;;;;;;;5049711;28;20028;-75
2022/10/21 03:03:15;;;;;;;31.23;18.58;;;;;;;;;;5052836;28;20052;-74
2022/10/21 03:05:41;;;;;;;29.33;17.25;;;;;;;;;;5055672;28;20017;-75
2022/10/21 03:08:07;;;;;;;29.38;17.98;;;;;;;;;;5035044;28;20045;-76
2022/10/21 03:10:33;;;;;;;27.90;17.30;;;;;;;;;;5035528;28;20025;-75
2022/10/21 03:12:59;;;;;;;25.85;17.08;;;;;;;;;;5033776;28;20037;-74
2022/10/21 03:15:25;;;;;;;30.48;17.83;;;;;;;;;;5034503;28;20036;-74
2022/10/21 03:17:51;;;;;;;31.27;17.95;;;;;;;;;;5034759;28;20026;-76
2022/10/21 03:20:17;;;;;;;32.63;18.70;;;;;;;;;;5034914;28;20037;-75
2022/10/21 03:22:43;;;;;;;29.17;17.83;;;;;;;;;;5033409;28;20056;-74
2022/10/21 03:25:09;;;;;;;30.27;17.65;;;;;;;;;;5035293;28;20032;-74
2022/10/21 03:27:35;;;;;;;29.48;18.48;;;;;;;;;;5035871;28;20036;-74
2022/10/21 03:30:01;;;;;;;34.47;18.10;;;;;;;;;;5034796;28;20112;-74
2022/10/21 03:32:27;;;;;;;33.92;18.90;;;;;;;;;;5034879;28;20048;-74
2022/10/21 03:34:53;;;;;;;33.88;18.13;;;;;;;;;;5034691;28;20386;-74
2022/10/21 03:37:19;;;;;;;31.90;19.00;;;;;;;;;;5035411;28;20386;-74
2022/10/21 03:39:45;;;;;;;26.58;17.30;;;;;;;;;;5038222;28;20025;-75
2022/10/21 03:42:11;;;;;;;31.88;17.50;;;;;;;;;;5036372;28;20025;-74
2022/10/21 03:44:37;;;;;;;28.48;18.40;;;;;;;;;;5034717;28;20383;-74
2022/10/21 03:47:02;;;;;;;29.90;18.33;;;;;;;;;;5041904;28;20077;-74
2022/10/21 03:49:28;;;;;;;35.13;18.50;;;;;;;;;;5044646;28;20033;-73
2022/10/21 03:51:54;;;;;;;32.63;18.88;;;;;;;;;;5042650;28;20065;-73
2022/10/21 03:54:20;;;;;;;34.08;18.88;;;;;;;;;;5034731;28;20037;-74
2022/10/21 03:56:46;;;;;;;31.98;19.15;;;;;;;;;;5034376;28;20037;-74
2022/10/21 03:59:12;;;;;;;36.95;19.02;;;;;;;;;;5037215;28;20033;-77
2022/10/21 04:01:38;;;;;;;33.55;18.77;;;;;;;;;;5037835;28;20025;-75
2022/10/21 04:04:04;;;;;;;31.00;18.58;;;;;;;;;;5035801;28;20541;-77
2022/10/21 04:06:30;;;;;;;34.58;19.05;;;;;;;;;;5037361;28;20033;-76
2022/10/21 04:08:56;;;;;;;31.35;19.50;;;;;;;;;;5034117;28;20410;-72
2022/10/21 04:11:22;;;;;;;33.15;19.83;;;;;;;;;;5034817;28;20175;-75
2022/10/21 04:13:48;;;;;;;33.45;19.05;;;;;;;;;;5036165;28;20475;-77
2022/10/21 04:16:15;;;;;;;29.38;18.85;;;;;;;;;;5032237;28;20382;-75
2022/10/21 04:18:42;;;;;;;35.28;20.23;;;;;;;;;;5033599;28;20557;-75
2022/10/21 04:21:08;;;;;;;29.75;18.88;;;;;;;;;;5034104;28;20081;-75
2022/10/21 04:23:34;;;;;;;32.53;18.63;;;;;;;;;;5033544;28;20030;-75
2022/10/21 04:26:00;;;;;;;32.38;19.27;;;;;;;;;;5033678;28;20121;-73
2022/10/21 04:28:26;;;;;;;32.38;18.95;;;;;;;;;;5035124;28;20032;-75
2022/10/21 04:30:52;;;;;;;32.38;18.95;;;;;;;;;;5033428;28;20034;-75
2022/10/21 04:33:18;;;;;;;34.83;19.83;;;;;;;;;;5038702;28;20053;-75
2022/10/21 04:35:44;;;;;;;38.17;20.23;;;;;;;;;;5036797;28;20032;-74
2022/10/21 04:38:10;;;;;;;32.92;18.90;;;;;;;;;;5040047;28;20033;-74
2022/10/21 04:40:36;;;;;;;33.13;19.60;;;;;;;;;;5039550;28;20062;-74
2022/10/21 04:43:03;;;;;;;34.10;19.40;;;;;;;;;;5039546;28;20025;-76
2022/10/21 04:45:29;;;;;;;31.13;18.90;;;;;;;;;;5044290;28;20080;-74
2022/10/21 04:47:55;;;;;;;31.00;19.42;;;;;;;;;;5047312;28;20080;-73
2022/10/21 04:50:21;;;;;;;35.78;20.90;;;;;;;;;;5046515;28;20060;-74
2022/10/21 04:52:47;;;;;;;33.85;19.52;;;;;;;;;;5046495;28;20089;-74
2022/10/21 04:55:13;;;;;;;33.58;19.63;;;;;;;;;;5047813;28;20849;-74
2022/10/21 04:57:39;;;;;;;33.83;20.20;;;;;;;;;;5047290;28;20021;-75
2022/10/21 05:00:05;;;;;;;39.70;20.48;;;;;;;;;;5043224;28;20565;-75
2022/10/21 05:02:31;;;;;;;38.58;21.30;;;;;;;;;;5034818;28;20030;-75
2022/10/21 05:04:57;;;;;;;38.63;19.88;;;;;;;;;;5033426;28;20242;-75
2022/10/21 05:07:23;;;;;;;34.83;20.80;;;;;;;;;;5037347;28;20025;-75
2022/10/21 05:09:49;;;;;;;34.28;21.67;;;;;;;;;;5034917;28;20029;-75
2022/10/21 05:12:15;;;;;;;44.35;20.42;;;;;;;;;;5039360;28;20033;-75
2022/10/21 05:14:41;;;;;;;32.78;20.60;;;;;;;;;;5048648;28;20026;-74
2022/10/21 05:17:07;;;;;;;35.63;21.45;;;;;;;;;;5052555;28;20025;-74
2022/10/21 05:19:33;;;;;;;38.72;20.10;;;;;;;;;;5050338;28;20017;-75
2022/10/21 05:21:59;;;;;;;34.92;20.42;;;;;;;;;;5044253;28;20449;-75
2022/10/21 05:24:24;;;;;;;34.70;20.30;;;;;;;;;;5037362;28;20061;-76
2022/10/21 05:26:51;;;;;;;40.25;21.10;;;;;;;;;;5036371;28;20052;-76
2022/10/21 05:29:17;;;;;;;33.65;20.05;;;;;;;;;;5035968;28;20061;-74
2022/10/21 05:31:43;;;;;;;39.05;19.98;;;;;;;;;;5033294;28;20041;-74
2022/10/21 05:34:09;;;;;;;32.42;20.83;;;;;;;;;;5033000;28;20417;-74
2022/10/21 05:36:35;;;;;;;31.60;19.90;;;;;;;;;;5033848;28;20032;-77
2022/10/21 05:39:01;;;;;;;33.83;21.00;;;;;;;;;;5035747;28;20483;-74
2022/10/21 05:41:27;;;;;;;39.55;20.42;;;;;;;;;;5036218;28;20077;-74
2022/10/21 05:43:53;;;;;;;36.42;20.33;;;;;;;;;;5036423;28;20056;-74
2022/10/21 05:46:19;;;;;;;39.42;21.48;;;;;;;;;;5036699;28;20472;-74
2022/10/21 05:48:45;;;;;;;41.00;22.45;;;;;;;;;;5038093;28;20033;-74
2022/10/21 05:51:11;;;;;;;32.28;20.98;;;;;;;;;;5041667;28;20026;-74
2022/10/21 05:53:38;;;;;;;42.67;22.30;;;;;;;;;;5040514;28;20029;-75
2022/10/21 05:56:05;;;;;;;36.50;20.85;;;;;;;;;;5043172;28;20021;-75
2022/10/21 05:58:32;;;;;;;38.50;21.85;;;;;;;;;;5045947;28;20021;-73
2022/10/21 06:00:58;;;;;;;39.03;22.15;;;;;;;;;;5037900;28;20035;-74
2022/10/21 06:03:28;;;;;;;36.53;20.65;;;;;;;;;;5039596;28;20029;-73
2022/10/21 06:05:55;;;;;;;34.40;20.80;;;;;;;;;;5036691;28;20025;-72
2022/10/21 06:08:21;;;;;;;41.67;21.17;;;;;;;;;;5041008;28;20117;-75
2022/10/21 06:10:47;;;;;;;41.80;21.15;;;;;;;;;;5036629;28;20525;-74
2022/10/21 06:13:12;;;;;;;37.80;20.30;;;;;;;;;;5039313;28;20079;-73
2022/10/21 06:15:38;;;;;;;38.65;21.35;;;;;;;;;;5051075;28;20029;-75
2022/10/21 06:18:04;;;;;;;39.92;21.10;;;;;;;;;;5058708;28;20034;-73
2022/10/21 06:20:30;;;;;;;40.13;20.52;;;;;;;;;;5058064;28;20021;-73
2022/10/21 06:22:58;;;;;;;39.47;21.77;;;;;;;;;;5058882;28;20466;-74
2022/10/21 06:25:24;;;;;;;35.00;21.45;;;;;;;;;;5060034;28;20084;-74
2022/10/21 06:27:51;;;;;;;35.95;21.40;;;;;;;;;;5055815;28;20063;-76
2022/10/21 06:30:17;;;;;;;34.75;20.67;;;;;;;;;;5056934;28;20033;-77
2022/10/21 06:32:43;;;;;;;39.38;21.90;;;;;;;;;;5055245;28;20449;-76
2022/10/21 06:35:09;;;;;;;42.47;21.15;;;;;;;;;;5056437;28;20143;-74
2022/10/21 06:37:35;;;;;;;40.45;21.25;;;;;;;;;;5056417;28;20382;-74
2022/10/21 06:40:03;;;;;;;43.92;26.73;;;;;;;;;;5054965;28;20116;-76
2022/10/21 06:42:29;;;;;;;38.95;22.38;;;;;;;;;;5056185;28;20017;-76
2022/10/21 06:44:55;;;;;;;44.65;21.27;;;;;;;;;;5055712;28;20458;-77
2022/10/21 06:47:21;;;;;;;39.28;22.15;;;;;;;;;;5055866;28;20036;-75
2022/10/21 06:49:47;;;;;;;35.95;21.52;;;;;;;;;;5056416;28;20024;-74
2022/10/21 06:52:13;;;;;;;34.47;21.15;;;;;;;;;;5057119;28;20051;-76
2022/10/21 06:54:39;;;;;;;41.90;21.42;;;;;;;;;;5071457;28;20017;-75
2022/10/21 06:57:05;;;;;;;38.30;22.15;;;;;;;;;;5076118;28;20047;-73
2022/10/21 06:59:34;;;;;;;36.58;22.27;;;;;;;;;;5063832;28;20052;-77
2022/10/21 07:02:00;;;;;;;46.15;21.67;;;;;;;;;;5059316;28;20087;-74
2022/10/21 07:04:26;;;;;;;45.78;21.77;;;;;;;;;;5063008;28;20464;-74
2022/10/21 07:06:52;;;;;;;39.60;21.63;;;;;;;;;;5068127;28;20020;-74
2022/10/21 07:09:18;;;;;;;35.03;21.52;;;;;;;;;;5070613;22;20037;-74
2022/10/21 07:11:44;;;;;;;52.97;26.50;;;;;;;;;;5053998;28;20078;-73
2022/10/21 07:14:13;;;;;;;43.45;23.23;;;;;;;;;;5054069;28;20029;-73
2022/10/21 07:16:39;;;;;;;41.10;22.35;;;;;;;;;;5053862;28;20025;-73
2022/10/21 07:19:05;;;;;;;48.72;24.13;;;;;;;;;;5053779;28;20393;-74
2022/10/21 07:21:31;;;;;;;38.28;20.95;;;;;;;;;;5053982;28;20062;-73
2022/10/21 07:23:58;;;;;;;37.13;20.67;;;;;;;;;;5054390;28;20021;-74
2022/10/21 07:26:24;;;;;;;40.88;20.60;;;;;;;;;;5058145;28;20446;-74
2022/10/21 07:28:51;;;;;;;39.67;22.77;;;;;;;;;;5053802;28;20029;-77
2022/10/21 07:31:18;;;;;;;41.70;21.50;;;;;;;;;;5055253;28;20053;-77
2022/10/21 07:33:44;;;;;;;36.88;19.88;;;;;;;;;;5053839;28;20436;-76
2022/10/21 07:36:10;;;;;;;40.50;21.85;;;;;;;;;;5053642;28;20033;-76
2022/10/21 07:38:36;;;;;;;37.42;21.73;;;;;;;;;;5055128;28;20059;-77
2022/10/21 07:41:03;;;;;;;36.60;21.15;;;;;;;;;;5060970;28;20024;-76
2022/10/21 07:43:29;;;;;;;36.08;21.38;;;;;;;;;;5053835;28;20020;-74
2022/10/21 07:45:56;;;;;;;33.03;21.17;;;;;;;;;;5053237;28;20033;-74
2022/10/21 07:48:22;;;;;;;35.92;20.30;;;;;;;;;;5053681;28;20508;-74
2022/10/21 07:50:49;;;;;;;36.85;20.48;;;;;;;;;;5052706;28;20041;-75
2022/10/21 07:53:15;;;;;;;37.97;19.65;;;;;;;;;;5053419;28;20111;-73
2022/10/21 07:55:41;;;;;;;39.92;20.67;;;;;;;;;;5052868;28;20024;-73
2022/10/21 07:58:07;;;;;;;42.58;22.73;;;;;;;;;;5052941;28;20426;-73
2022/10/21 08:00:33;;;;;;;30.48;20.10;;;;;;;;;;5051213;28;20087;-73
2022/10/21 08:02:59;;;;;;;28.38;17.92;;;;;;;;;;5052642;28;20020;-74
2022/10/21 08:05:25;;;;;;;35.53;19.10;;;;;;;;;;5052507;28;20043;-74
2022/10/21 08:07:51;;;;;;;33.22;18.85;;;;;;;;;;5054338;28;20482;-74
2022/10/21 08:10:17;;;;;;;31.52;18.95;;;;;;;;;;5052877;28;20044;-71
2022/10/21 08:12:43;;;;;;;34.78;19.58;;;;;;;;;;5053478;28;20033;-74
2022/10/21 08:15:09;;;;;;;34.05;19.30;;;;;;;;;;5053467;28;20070;-71
2022/10/21 08:17:35;;;;;;;34.65;18.08;;;;;;;;;;5058167;28;20082;-73
2022/10/21 08:20:01;;;;;;;31.50;18.77;;;;;;;;;;5057045;28;20428;-72
2022/10/21 08:22:27;;;;;;;33.63;19.92;;;;;;;;;;5056274;28;20029;-74
2022/10/21 08:24:53;;;;;;;31.52;18.42;;;;;;;;;;5052448;28;20097;-73
2022/10/21 08:27:19;;;;;;;31.55;18.33;;;;;;;;;;5051827;28;20024;-72
2022/10/21 08:29:46;;;;;;;38.80;18.98;;;;;;;;;;5051972;28;20037;-73
2022/10/21 08:32:12;;;;;;;31.50;17.60;;;;;;;;;;5051654;28;20035;-71
2022/10/21 08:34:39;;;;;;;35.30;18.08;;;;;;;;;;5061282;28;20103;-73
2022/10/21 08:37:05;;;;;;;33.13;18.20;;;;;;;;;;5072379;28;20091;-72
2022/10/21 08:39:31;;;;;;;31.10;18.30;;;;;;;;;;5072274;28;20063;-74
2022/10/21 08:42:03;;;;;;;34.30;19.17;;;;;;;;;;5075568;28;20039;-75
2022/10/21 08:44:37;;;;;;;28.30;18.23;;;;;;;;;;5080920;28;20020;-72
2022/10/21 08:47:22;;;;;;;30.15;18.45;;;;;;;;;;5081219;28;20062;-72
2022/10/21 08:49:53;;;;;;;32.88;18.65;;;;;;;;;;5072450;28;20107;-73
2022/10/21 08:52:21;;;;;;;43.85;20.50;;;;;;;;;;5071780;28;20507;-72
2022/10/21 08:54:50;;;;;;;30.27;18.33;;;;;;;;;;5072025;28;20355;-73
2022/10/21 08:57:16;;;;;;;36.10;20.88;;;;;;;;;;5071181;28;20263;-74
2022/10/21 08:59:43;;;;;;;30.30;18.67;;;;;;;;;;5076434;28;20021;-73
2022/10/21 09:02:11;;;;;;;68.53;36.78;;;;;;;;;;5071588;28;20475;-73
2022/10/21 09:04:50;;;;;;;34.15;20.00;;;;;;;;;;5071206;28;20061;-73
2022/10/21 09:07:22;;;;;;;42.80;20.95;;;;;;;;;;5071419;28;20082;-72
2022/10/21 09:10:17;;;;;;;34.25;19.92;;;;;;;;;;5071920;28;20040;-74
2022/10/21 09:12:43;;;;;;;;;;;;;;;;;;5073621;28;20052;-74
2022/10/21 09:15:26;;;;;;;34.50;19.38;;;;;;;;;;5082325;28;19905;-73
2022/10/21 09:18:01;;;;;;;33.40;19.92;;;;;;;;;;5081367;28;20099;-73
2022/10/21 09:20:46;;;;;;;43.15;22.90;;;;;;;;;;5080039;28;20031;-74
2022/10/21 09:23:31;;;;;;;35.30;19.33;;;;;;;;;;5081327;28;20025;-72
2022/10/21 09:25:56;;;;;;;33.47;20.50;;;;;;;;;;5081292;28;20024;-73
2022/10/21 09:28:24;;;;;;;30.50;18.30;;;;;;;;;;5080307;28;20388;-74
2022/10/21 09:30:50;;;;;;;32.42;19.17;;;;;;;;;;5078750;28;20112;-73
2022/10/21 09:33:23;;;;;;;35.20;19.48;;;;;;;;;;5076508;28;20249;-72
2022/10/21 09:35:53;;;;;;;35.35;18.23;;;;;;;;;;5075722;28;20380;-74
2022/10/21 09:38:21;;;;;;;38.65;18.67;;;;;;;;;;5075072;28;20031;-72
2022/10/21 09:40:49;;;;;;;32.58;18.30;;;;;;;;;;5075459;28;20027;-74
2022/10/21 09:43:17;;;;;;;32.25;17.42;;;;;;;;;;5076589;28;20021;-74
2022/10/21 09:45:43;;;;;;;27.73;16.83;;;;;;;;;;5077296;28;20032;-72
2022/10/21 09:48:19;;;;;;;28.10;15.95;;;;;;;;;;5087494;28;20028;-74
2022/10/21 09:50:46;;;;;;;31.80;17.27;;;;;;;;;;5085436;28;20028;-75
2022/10/21 09:53:20;;;;;;;30.17;16.55;;;;;;;;;;5083199;28;20030;-75
2022/10/21 09:55:48;;;;;;;26.13;17.27;;;;;;;;;;5084067;28;20024;-76
2022/10/21 09:58:27;;;;;;;30.73;16.70;;;;;;;;;;5083233;28;20050;-76
2022/10/21 10:00:54;;;;;;;33.40;19.23;;;;;;;;;;5079482;28;20044;-73
2022/10/21 10:03:31;;;;;;;28.02;16.80;;;;;;;;;;5078534;28;20103;-74
2022/10/21 10:05:57;;;;;;;29.15;16.05;;;;;;;;;;5076941;28;20128;-74
2022/10/21 10:08:34;;;;;;;27.23;15.95;;;;;;;;;;5076523;28;20119;-73
2022/10/21 10:11:01;;;;;;;27.33;16.20;;;;;;;;;;5077996;28;20031;-75
2022/10/21 10:13:30;;;;;;;24.25;15.80;;;;;;;;;;5074242;28;20032;-73
2022/10/21 10:15:56;;;;;;;25.45;14.60;;;;;;;;;;5072653;28;20029;-74
2022/10/21 10:18:22;;;;;;;22.73;12.90;;;;;;;;;;5073821;28;20025;-75
2022/10/21 10:21:05;;;;;;;31.60;13.20;;;;;;;;;;5074020;28;20462;-75
2022/10/21 10:23:41;;;;;;;31.23;13.82;;;;;;;;;;5074738;28;20025;-78
2022/10/21 10:26:07;;;;;;;20.27;11.27;;;;;;;;;;5078847;28;20059;-75
2022/10/21 10:28:33;;;;;;;30.42;12.13;;;;;;;;;;5075769;28;20048;-73
2022/10/21 10:30:59;;;;;;;20.15;11.35;;;;;;;;;;5074779;28;20032;-75
2022/10/21 10:33:34;;;;;;;21.33;10.88;;;;;;;;;;5074442;28;20213;-74
2022/10/21 10:36:01;;;;;;;15.82;10.13;;;;;;;;;;5074185;28;20130;-73
2022/10/21 10:38:32;;;;;;;19.20;12.32;;;;;;;;;;5073817;28;20036;-76
2022/10/21 10:41:05;;;;;;;23.17;12.75;;;;;;;;;;5075074;28;20031;-76
2022/10/21 10:43:31;;;;;;;17.70;9.43;;;;;;;;;;5073485;28;20020;-75
2022/10/21 10:46:02;;;;;;;23.42;10.82;;;;;;;;;;5075639;28;20044;-75
2022/10/21 10:48:36;;;;;;;16.75;9.35;;;;;;;;;;5075728;28;20021;-75
2022/10/21 10:51:06;;;;;;;22.48;10.13;;;;;;;;;;5074167;28;20580;-74
2022/10/21 10:53:38;;;;;;;19.17;10.05;;;;;;;;;;5074223;28;20035;-74
2022/10/21 10:56:04;;;;;;;19.63;9.85;;;;;;;;;;5076374;28;20434;-75
2022/10/21 10:58:32;;;;;;;22.25;9.68;;;;;;;;;;5079730;28;20305;-74
2022/10/21 11:01:00;;;;;;;16.63;10.10;;;;;;;;;;5076243;28;20315;-75
2022/10/21 11:03:29;;;;;;;17.35;10.35;;;;;;;;;;5078741;28;20086;-76
2022/10/21 11:05:59;;;;;;;23.15;9.63;;;;;;;;;;5073368;28;20031;-74
2022/10/21 11:08:32;;;;;;;22.02;9.18;;;;;;;;;;5073518;28;20078;-74
2022/10/21 11:11:06;;;;;;;23.20;10.38;;;;;;;;;;5073933;28;20020;-76
2022/10/21 11:13:33;;;;;;;18.70;9.27;;;;;;;;;;5072243;28;20458;-75
2022/10/21 11:16:13;;;;;;;17.33;9.63;;;;;;;;;;5073568;28;20111;-74
2022/10/21 11:18:51;;;;;;;18.38;8.55;;;;;;;;;;5074723;28;20025;-74
2022/10/21 11:21:36;;;;;;;19.65;8.98;;;;;;;;;;5080676;28;20082;-75
2022/10/21 11:24:14;;;;;;;15.40;8.63;;;;;;;;;;5081194;28;20029;-75
2022/10/21 11:26:47;;;;;;;22.42;10.15;;;;;;;;;;5082723;28;20055;-75
2022/10/21 11:29:12;;;;;;;12.73;8.40;;;;;;;;;;5077338;28;20504;-75
2022/10/21 11:31:59;;;;;;;16.55;8.27;;;;;;;;;;5076021;28;20028;-74
2022/10/21 11:34:34;;;;;;;16.85;8.93;;;;;;;;;;5072926;28;20481;-75
2022/10/21 11:37:15;;;;;;;12.32;8.50;;;;;;;;;;5073178;28;20024;-75
2022/10/21 11:39:47;;;;;;;16.88;9.15;;;;;;;;;;5074170;28;20021;-76
2022/10/21 11:42:30;;;;;;;16.10;7.90;;;;;;;;;;5074100;28;20020;-74
2022/10/21 11:44:56;;;;;;;17.98;8.18;;;;;;;;;;5073577;28;20492;-76
2022/10/21 11:47:31;;;;;;;23.67;8.77;;;;;;;;;;5073342;28;20106;-75
2022/10/21 11:49:56;;;;;;;15.73;7.30;;;;;;;;;;5073040;28;20021;-74
2022/10/21 11:52:29;;;;;;;12.70;7.88;;;;;;;;;;5072853;28;20393;-75
2022/10/21 11:55:13;;;;;;;17.75;8.73;;;;;;;;;;5072908;28;20033;-75
2022/10/21 11:57:39;;;;;;;;;;;;;;;;;;5073307;28;20029;-75
2022/10/21 12:00:19;;;;;;;14.93;8.23;;;;;;;;;;5074184;28;19911;-75
2022/10/21 12:02:52;;;;;;;17.35;8.65;;;;;;;;;;5072984;28;20060;-75
2022/10/21 12:05:21;;;;;;;19.88;9.27;;;;;;;;;;5072595;28;20039;-74
2022/10/21 12:08:06;;;;;;;18.52;8.95;;;;;;;;;;5076399;28;20032;-75
2022/10/21 12:10:47;;;;;;;27.92;8.95;;;;;;;;;;5074526;28;20200;-76
2022/10/21 12:13:16;;;;;;;18.40;8.50;;;;;;;;;;5075338;28;20021;-75
2022/10/21 12:15:47;;;;;;;15.60;8.18;;;;;;;;;;5070548;28;20055;-75
2022/10/21 12:18:18;;;;;;;15.52;7.78;;;;;;;;;;5068019;28;20087;-75
2022/10/21 12:20:46;;;;;;;71.28;37.28;;;;;;;;;;5077682;28;20367;-74
2022/10/21 12:23:15;;;;;;;18.50;12.38;;;;;;;;;;5077557;28;20382;-74
2022/10/21 12:25:44;;;;;;;14.60;8.20;;;;;;;;;;5072663;28;20064;-74
2022/10/21 12:28:15;;;;;;;18.10;8.98;;;;;;;;;;5073729;28;20021;-75
2022/10/21 12:30:46;;;;;;;17.00;7.50;;;;;;;;;;5071750;28;20028;-75
2022/10/21 12:33:32;;;;;;;14.98;8.00;;;;;;;;;;5074379;28;20069;-74
2022/10/21 12:36:17;;;;;;;17.90;6.80;;;;;;;;;;5071692;28;20029;-74
2022/10/21 12:38:47;;;;;;;15.32;6.40;;;;;;;;;;5072751;28;20041;-74
2022/10/21 12:41:19;;;;;;;15.15;7.22;;;;;;;;;;5072165;28;20039;-76
2022/10/21 12:43:51;;;;;;;16.98;8.00;;;;;;;;;;5071638;28;20027;-74
2022/10/21 12:46:23;;;;;;;18.17;8.25;;;;;;;;;;5070950;28;20060;-74
2022/10/21 12:48:49;;;;;;;17.42;7.75;;;;;;;;;;5072355;28;20028;-75
2022/10/21 12:51:19;;;;;;;17.67;7.18;;;;;;;;;;5073016;28;20035;-74
2022/10/21 12:53:48;;;;;;;18.42;7.35;;;;;;;;;;5072182;28;20039;-74
2022/10/21 12:56:24;;;;;;;14.38;8.30;;;;;;;;;;5071674;28;20155;-74
2022/10/21 12:58:55;;;;;;;18.35;10.18;;;;;;;;;;5071274;28;21504;-75
2022/10/21 13:01:41;;;;;;;17.60;9.00;;;;;;;;;;5078252;28;20473;-74
2022/10/21 13:04:39;;;;;;;15.95;8.43;;;;;;;;;;5072971;28;20481;-74
2022/10/21 13:07:25;;;;;;;18.85;7.40;;;;;;;;;;5072150;28;20031;-74
2022/10/21 13:09:52;;;;;;;21.17;8.40;;;;;;;;;;5111028;22;20043;-82
2022/10/21 13:12:24;;;;;;;17.48;8.82;;;;;;;;;;5095200;28;20024;-76
2022/10/21 13:14:51;;;;;;;17.38;7.35;;;;;;;;;;5093702;28;20024;-76
2022/10/21 13:17:20;;;;;;;18.38;7.93;;;;;;;;;;5092853;28;20032;-78
2022/10/21 13:19:47;;;;;;;23.85;10.05;;;;;;;;;;5083026;28;20089;-76
2022/10/21 13:22:32;;;;;;;18.60;9.40;;;;;;;;;;5075539;28;20020;-77
2022/10/21 13:25:08;;;;;;;21.08;9.93;;;;;;;;;;5074724;28;20568;-76
2022/10/21 13:27:35;;;;;;;21.70;10.23;;;;;;;;;;5076109;28;20033;-77
2022/10/21 13:30:01;;;;;;;24.33;9.80;;;;;;;;;;5082249;28;20025;-81
2022/10/21 13:32:32;;;;;;;20.50;9.65;;;;;;;;;;5086480;28;20020;-77
2022/10/21 13:35:10;;;;;;;19.15;9.82;;;;;;;;;;5082897;28;20025;-77
2022/10/21 13:37:38;;;;;;;18.52;9.43;;;;;;;;;;5071643;28;20032;-76
2022/10/21 13:40:06;;;;;;;28.95;10.52;;;;;;;;;;5073947;28;20096;-81
2022/10/21 13:42:38;;;;;;;19.58;9.02;;;;;;;;;;5071556;28;20027;-76
2022/10/21 13:45:17;;;;;;;21.60;10.90;;;;;;;;;;5073120;28;20623;-75
2022/10/21 13:47:44;;;;;;;16.13;9.23;;;;;;;;;;5073145;28;20021;-75
2022/10/21 13:50:13;;;;;;;22.27;9.05;;;;;;;;;;5075365;28;20024;-76
2022/10/21 13:52:42;;;;;;;19.80;10.15;;;;;;;;;;5082277;28;20029;-76
2022/10/21 13:55:16;;;;;;;22.25;9.77;;;;;;;;;;5080741;28;20021;-76
2022/10/21 13:57:46;;;;;;;23.42;9.95;;;;;;;;;;5072842;28;20432;-77
2022/10/21 14:00:18;;;;;;;17.65;9.65;;;;;;;;;;5075563;28;20021;-77
2022/10/21 14:02:48;;;;;;;18.02;10.60;;;;;;;;;;5077309;28;20032;-76
2022/10/21 14:05:30;;;;;;;19.17;9.95;;;;;;;;;;5082760;28;20032;-76
2022/10/21 14:07:56;;;;;;;21.02;11.02;;;;;;;;;;5086031;28;20366;-80
2022/10/21 14:10:22;;;;;;;21.83;10.50;;;;;;;;;;5080813;28;20035;-77
2022/10/21 14:12:48;;;;;;;17.50;8.80;;;;;;;;;;5084464;28;20020;-79
2022/10/21 14:15:20;;;;;;;15.80;7.97;;;;;;;;;;5080180;28;20036;-75
2022/10/21 14:17:51;;;;;;;13.57;6.80;;;;;;;;;;5082059;28;20041;-78
2022/10/21 14:20:22;;;;;;;16.48;6.82;;;;;;;;;;5085346;28;20638;-79
2022/10/21 14:22:50;;;;;;;11.68;6.18;;;;;;;;;;5095229;28;20459;-78
2022/10/21 14:25:16;;;;;;;14.70;6.55;;;;;;;;;;5096948;28;20099;-80
2022/10/21 14:27:45;;;;;;;11.25;6.35;;;;;;;;;;5099200;28;20031;-77
2022/10/21 14:30:16;;;;;;;10.68;5.82;;;;;;;;;;5097442;28;20481;-75
2022/10/21 14:32:43;;;;;;;13.20;6.20;;;;;;;;;;5097600;28;20043;-77